Ypsilanti, North Dakota
Current Conditions -  °F | °C
As of 5:56 PM on Monday 20 Oct 2014 (Local Time) from KJMS Reporting Station
Clear Clear  
Wind Chill: 65°   Ceiling: Unl
Heat Index: 65°   Visibility: 10mi
Dew Point: 38°   Wind: 7mph
Humidity: 37%   Direction: 120°ESE
Pressure: 29.99"   Gusts: NA
Location:  46.78°N, 98.57°W
Report Text: KJMS 202256Z AUTO 12006KT 10SM CLR 18/03 A2999 RMK AO2 SLP161 T01830033
Loading
Personal Weather Stations






























Interactive Weather Map
Tropical Storm Tracking
New forecast layout! Learn more

10-Day Weather Forecast

Advertisements
Track Severe Weather on mobile